createdAt,value
2023-05-06T00:00:27.213Z,1821.00
2023-05-06T00:01:27.242Z,1809.00
2023-05-06T00:02:27.426Z,1819.00
2023-05-06T00:03:27.493Z,1812.00
2023-05-06T00:04:27.404Z,1798.00
2023-05-06T00:05:27.396Z,1809.00
2023-05-06T00:06:27.443Z,1815.00
2023-05-06T00:07:27.447Z,1809.00
2023-05-06T00:08:27.459Z,1812.00
2023-05-06T00:09:27.532Z,1798.00
2023-05-06T00:10:27.604Z,1800.00
2023-05-06T00:11:27.568Z,1791.00
2023-05-06T00:12:27.596Z,1790.00
2023-05-06T00:13:27.613Z,1794.00
2023-05-06T00:14:27.702Z,1798.00
2023-05-06T00:16:27.778Z,1793.00
2023-05-06T00:17:27.834Z,1799.00
2023-05-06T00:18:27.993Z,1795.00
2023-05-06T00:19:27.832Z,1789.00
2023-05-06T00:20:27.852Z,1781.00
2023-05-06T00:21:27.915Z,1782.00
2023-05-06T00:22:27.921Z,1796.00
2023-05-06T00:23:27.952Z,1784.00
2023-05-06T00:24:27.966Z,1772.00
2023-05-06T00:25:28.041Z,1788.00
2023-05-06T00:26:28.042Z,1774.00
2023-05-06T00:27:28.070Z,1776.00
2023-05-06T00:28:28.142Z,1784.00
2023-05-06T00:29:28.172Z,1784.00
2023-05-06T00:30:28.177Z,1778.00
2023-05-06T00:31:28.203Z,1783.00
2023-05-06T00:32:28.310Z,1757.00
2023-05-06T00:33:28.254Z,1771.00
2023-05-06T00:34:28.374Z,1766.00
2023-05-06T00:35:28.319Z,1773.00
2023-05-06T00:36:28.387Z,1769.00
2023-05-06T00:37:28.387Z,1767.00
2023-05-06T00:38:28.426Z,1773.00
2023-05-06T00:39:28.454Z,1772.00
2023-05-06T00:40:28.479Z,1774.00
2023-05-06T00:41:28.514Z,1750.00
2023-05-06T00:42:28.543Z,1775.00
2023-05-06T00:43:28.583Z,1745.00
2023-05-06T00:44:28.612Z,1762.00
2023-05-06T00:45:28.672Z,1756.00
2023-05-06T00:46:28.681Z,1769.00
2023-05-06T00:47:28.718Z,1759.00
2023-05-06T00:48:28.783Z,1760.00
2023-05-06T00:49:28.790Z,1756.00
2023-05-06T00:50:28.861Z,1760.00
2023-05-06T00:51:28.855Z,1753.00
2023-05-06T00:52:28.904Z,1758.00
2023-05-06T00:53:28.933Z,1738.00
2023-05-06T00:54:28.966Z,1746.00
2023-05-06T00:55:28.993Z,1748.00
2023-05-06T00:56:29.027Z,1752.00
2023-05-06T00:57:29.054Z,1746.00
2023-05-06T00:58:29.121Z,1723.00
2023-05-06T00:59:29.129Z,1752.00
2023-05-06T01:00:29.153Z,1729.00
2023-05-06T01:01:29.230Z,1728.00
2023-05-06T01:02:39.822Z,1737.00
2023-05-06T01:03:30.337Z,1738.00
2023-05-06T01:04:29.205Z,1739.00
2023-05-06T01:05:29.189Z,1733.00
2023-05-06T01:06:29.247Z,1732.00
2023-05-06T01:07:29.176Z,1737.00
2023-05-06T01:08:29.193Z,1721.00
2023-05-06T01:09:29.172Z,1713.00
2023-05-06T01:10:29.182Z,1707.00
2023-05-06T01:11:29.152Z,1724.00
2023-05-06T01:12:29.152Z,1717.00
2023-05-06T01:13:29.188Z,1699.00
2023-05-06T01:14:29.168Z,1711.00
2023-05-06T01:15:29.134Z,1715.00
2023-05-06T01:16:29.242Z,1703.00
2023-05-06T01:17:29.228Z,1710.00
2023-05-06T01:18:29.237Z,1702.00
2023-05-06T01:19:29.343Z,1714.00
2023-05-06T01:20:29.317Z,1696.00
2023-05-06T01:21:29.349Z,1704.00
2023-05-06T01:22:29.429Z,1699.00
2023-05-06T01:23:29.428Z,1710.00
2023-05-06T01:24:29.446Z,1696.00
2023-05-06T01:25:30.384Z,1697.00
2023-05-06T01:26:29.510Z,1700.00
2023-05-06T01:27:29.558Z,1688.00
2023-05-06T01:28:29.575Z,1700.00
2023-05-06T01:29:29.637Z,1692.00
2023-05-06T01:30:29.670Z,1684.00
2023-05-06T01:31:29.700Z,1702.00
2023-05-06T01:32:29.750Z,1690.00
2023-05-06T01:33:29.781Z,1676.00
2023-05-06T01:34:29.809Z,1684.00
2023-05-06T01:35:29.825Z,1673.00
2023-05-06T01:36:29.887Z,1688.00
2023-05-06T01:37:29.945Z,1667.00
2023-05-06T01:38:30.069Z,1677.00
2023-05-06T01:39:29.981Z,1685.00
2023-05-06T01:40:30.063Z,1678.00
2023-05-06T01:41:30.053Z,1680.00
2023-05-06T01:42:30.093Z,1670.00
2023-05-06T01:43:30.156Z,1666.00
2023-05-06T01:44:30.205Z,1669.00
2023-05-06T01:45:30.208Z,1661.00
2023-05-06T01:46:30.284Z,1660.00
2023-05-06T01:47:30.359Z,1666.00
2023-05-06T01:48:30.335Z,1655.00
2023-05-06T01:49:30.385Z,1678.00
2023-05-06T01:50:30.409Z,1664.00
2023-05-06T01:51:30.436Z,1651.00
2023-05-06T01:52:30.484Z,1652.00
2023-05-06T01:53:30.495Z,1646.00
2023-05-06T01:54:30.590Z,1665.00
2023-05-06T01:55:30.594Z,1657.00
2023-05-06T01:56:30.608Z,1656.00
2023-05-06T01:57:30.677Z,1654.00
2023-05-06T01:58:30.713Z,1640.00
2023-05-06T01:59:30.744Z,1652.00
2023-05-06T02:00:30.770Z,1641.00
2023-05-06T02:01:30.841Z,1652.00
2023-05-06T02:02:30.942Z,1649.00
2023-05-06T02:03:31.087Z,1646.00
2023-05-06T02:04:30.926Z,1656.00
2023-05-06T02:05:30.976Z,1638.00
2023-05-06T02:06:31.024Z,1632.00
2023-05-06T02:07:31.083Z,1626.00
2023-05-06T02:08:31.096Z,1633.00
2023-05-06T02:09:31.123Z,1640.00
2023-05-06T02:10:31.233Z,1631.00
2023-05-06T02:11:31.245Z,1632.00
2023-05-06T02:12:31.273Z,1636.00
2023-05-06T02:13:31.330Z,1635.00
2023-05-06T02:14:31.340Z,1638.00
2023-05-06T02:15:31.377Z,1625.00
2023-05-06T02:16:31.459Z,1611.00
2023-05-06T02:17:31.485Z,1626.00
2023-05-06T02:18:31.491Z,1622.00
2023-05-06T02:19:31.532Z,1616.00
2023-05-06T02:20:31.548Z,1622.00
2023-05-06T02:21:31.583Z,1616.00
2023-05-06T02:22:31.620Z,1611.00
2023-05-06T02:23:31.682Z,1622.00
2023-05-06T02:24:31.725Z,1627.00
2023-05-06T02:25:31.770Z,1620.00
2023-05-06T02:26:31.864Z,1614.00
2023-05-06T02:27:31.852Z,1604.00
2023-05-06T02:28:31.909Z,1617.00
2023-05-06T02:29:31.934Z,1601.00
2023-05-06T02:30:31.993Z,1594.00
2023-05-06T02:31:32.108Z,1604.00
2023-05-06T02:32:32.077Z,1613.00
2023-05-06T02:33:32.121Z,1593.00
2023-05-06T02:34:32.157Z,1581.00
2023-05-06T02:35:32.166Z,1594.00
2023-05-06T02:36:32.219Z,1587.00
2023-05-06T02:37:32.247Z,1598.00
2023-05-06T02:38:32.302Z,1596.00
2023-05-06T02:39:32.348Z,1600.00
2023-05-06T02:40:32.453Z,1586.00
2023-05-06T02:41:32.423Z,1580.00
2023-05-06T02:42:32.544Z,1592.00
2023-05-06T02:43:32.512Z,1588.00
2023-05-06T02:44:32.570Z,1593.00
2023-05-06T02:45:32.697Z,1588.00
2023-05-06T02:46:32.690Z,1578.00
2023-05-06T02:47:32.751Z,1588.00
2023-05-06T02:48:32.743Z,1591.00
2023-05-06T02:49:32.796Z,1576.00
2023-05-06T02:50:32.894Z,1579.00
2023-05-06T02:51:32.908Z,1580.00
2023-05-06T02:52:32.929Z,1566.00
2023-05-06T02:53:33.020Z,1573.00
2023-05-06T02:54:33.087Z,1582.00
2023-05-06T02:55:33.100Z,1572.00
2023-05-06T02:56:33.142Z,1570.00
2023-05-06T02:57:33.176Z,1570.00
2023-05-06T02:58:33.509Z,1574.00
2023-05-06T02:59:33.278Z,1565.00
2023-05-06T03:00:33.308Z,1576.00
2023-05-06T03:01:33.463Z,1558.00
2023-05-06T03:02:33.446Z,1564.00
2023-05-06T03:03:33.463Z,1568.00
2023-05-06T03:04:33.553Z,1573.00
2023-05-06T03:05:33.532Z,1553.00
2023-05-06T03:06:33.584Z,1565.00
2023-05-06T03:07:33.626Z,1561.00
2023-05-06T03:08:33.698Z,1552.00
2023-05-06T03:09:33.737Z,1556.00
2023-05-06T03:10:33.976Z,1543.00
2023-05-06T03:11:33.841Z,1564.00
2023-05-06T03:12:33.898Z,1555.00
2023-05-06T03:13:33.933Z,1562.00
2023-05-06T03:14:33.959Z,1550.00
2023-05-06T03:15:34.032Z,1544.00
2023-05-06T03:16:34.114Z,1552.00
2023-05-06T03:17:34.237Z,1560.00
2023-05-06T03:18:34.176Z,1535.00
2023-05-06T03:19:34.204Z,1547.00
2023-05-06T03:20:34.272Z,1552.00
2023-05-06T03:21:34.317Z,1549.00
2023-05-06T03:22:34.365Z,1537.00
2023-05-06T03:23:34.439Z,1546.00
2023-05-06T03:24:34.444Z,1534.00
2023-05-06T03:25:34.524Z,1542.00
2023-05-06T03:26:34.531Z,1541.00
2023-05-06T03:27:34.591Z,1539.00
2023-05-06T03:28:34.626Z,1529.00
2023-05-06T03:29:34.654Z,1524.00
2023-05-06T03:30:34.781Z,1530.00
2023-05-06T03:31:34.871Z,1527.00
2023-05-06T03:32:34.876Z,1517.00
2023-05-06T03:33:34.889Z,1525.00
2023-05-06T03:34:34.899Z,1519.00
2023-05-06T03:35:34.956Z,1522.00
2023-05-06T03:36:35.024Z,1520.00
2023-05-06T03:37:35.056Z,1514.00
2023-05-06T03:38:35.116Z,1516.00
2023-05-06T03:39:35.206Z,1523.00
2023-05-06T03:40:35.208Z,1510.00
2023-05-06T03:41:35.281Z,1528.00
2023-05-06T03:42:35.345Z,1522.00
2023-05-06T03:43:35.368Z,1514.00
2023-05-06T03:44:35.434Z,1497.00
2023-05-06T03:45:35.499Z,1505.00
2023-05-06T03:46:35.585Z,1518.00
2023-05-06T03:47:35.592Z,1504.00
2023-05-06T03:48:35.610Z,1523.00
2023-05-06T03:49:35.719Z,1498.00
2023-05-06T03:50:37.495Z,1503.00
2023-05-06T03:51:36.449Z,1508.00
2023-05-06T03:52:35.824Z,1516.00
2023-05-06T03:53:35.904Z,1505.00
2023-05-06T03:54:35.993Z,1507.00
2023-05-06T03:55:36.017Z,1493.00
2023-05-06T03:56:36.076Z,1502.00
2023-05-06T03:57:36.080Z,1498.00
2023-05-06T03:58:36.142Z,1488.00
2023-05-06T03:59:36.305Z,1505.00
2023-05-06T04:00:36.255Z,1496.00
2023-05-06T04:01:36.317Z,1495.00
2023-05-06T04:02:36.572Z,1498.00
2023-05-06T04:03:36.512Z,1510.00
2023-05-06T04:04:36.460Z,1485.00
2023-05-06T04:05:36.536Z,1494.00
2023-05-06T04:06:36.556Z,1501.00
2023-05-06T04:07:36.625Z,1478.00
2023-05-06T04:08:36.688Z,1487.00
2023-05-06T04:09:36.704Z,1494.00
2023-05-06T04:10:36.792Z,1485.00
2023-05-06T04:11:36.817Z,1483.00
2023-05-06T04:12:36.964Z,1482.00
2023-05-06T04:13:36.947Z,1468.00
2023-05-06T04:14:37.013Z,1482.00
2023-05-06T04:15:37.509Z,1469.00
2023-05-06T04:16:37.166Z,1471.00
2023-05-06T04:17:37.212Z,1473.00
2023-05-06T04:18:37.253Z,1483.00
2023-05-06T04:19:37.242Z,1463.00
2023-05-06T04:20:37.305Z,1465.00
2023-05-06T04:21:37.363Z,1480.00
2023-05-06T04:22:37.408Z,1463.00
2023-05-06T04:23:37.453Z,1455.00
2023-05-06T04:24:37.500Z,1473.00
2023-05-06T04:25:37.571Z,1474.00
2023-05-06T04:26:37.594Z,1460.00
2023-05-06T04:27:37.676Z,1478.00
2023-05-06T04:28:37.715Z,1449.00
2023-05-06T04:29:37.766Z,1454.00
2023-05-06T04:30:37.849Z,1466.00
2023-05-06T04:31:37.930Z,1462.00
2023-05-06T04:32:37.948Z,1458.00
2023-05-06T04:33:37.974Z,1456.00
2023-05-06T04:34:38.096Z,1460.00
2023-05-06T04:35:38.104Z,1459.00
2023-05-06T04:36:40.481Z,1453.00
2023-05-06T04:37:38.307Z,1465.00
2023-05-06T04:38:38.373Z,1457.00
2023-05-06T04:39:38.410Z,1441.00
2023-05-06T04:40:38.455Z,1439.00
2023-05-06T04:41:38.541Z,1448.00
2023-05-06T04:42:38.571Z,1441.00
2023-05-06T04:43:38.663Z,1443.00
2023-05-06T04:44:38.694Z,1438.00
2023-05-06T04:45:38.776Z,1451.00
2023-05-06T04:46:38.787Z,1441.00
2023-05-06T04:47:38.858Z,1431.00
2023-05-06T04:48:38.922Z,1431.00
2023-05-06T04:49:38.965Z,1448.00
2023-05-06T04:50:39.069Z,1444.00
2023-05-06T04:51:39.051Z,1441.00
2023-05-06T04:52:39.098Z,1438.00
2023-05-06T04:53:39.164Z,1438.00
2023-05-06T04:54:39.200Z,1436.00
2023-05-06T04:55:39.253Z,1426.00
2023-05-06T04:56:39.327Z,1440.00
2023-05-06T04:57:39.374Z,1421.00
2023-05-06T04:58:39.444Z,1432.00
2023-05-06T04:59:39.456Z,1430.00
2023-05-06T05:00:39.551Z,1431.00
2023-05-06T05:01:39.609Z,1423.00
2023-05-06T05:02:39.671Z,1422.00
2023-05-06T05:03:39.699Z,1428.00
2023-05-06T05:04:39.735Z,1408.00
2023-05-06T05:05:40.017Z,1429.00
2023-05-06T05:06:39.814Z,1411.00
2023-05-06T05:07:39.863Z,1410.00
2023-05-06T05:08:39.905Z,1424.00
2023-05-06T05:09:39.944Z,1408.00
2023-05-06T05:10:40.020Z,1406.00
2023-05-06T05:11:40.068Z,1409.00
2023-05-06T05:12:40.117Z,1423.00
2023-05-06T05:13:40.143Z,1424.00
2023-05-06T05:14:40.215Z,1410.00
2023-05-06T05:15:40.260Z,1417.00
2023-05-06T05:16:40.349Z,1418.00
2023-05-06T05:17:40.391Z,1406.00
2023-05-06T05:18:40.419Z,1395.00
2023-05-06T05:19:40.461Z,1404.00
2023-05-06T05:20:40.541Z,1407.00
2023-05-06T05:21:40.577Z,1393.00
2023-05-06T05:22:40.624Z,1381.00
2023-05-06T05:23:40.677Z,1404.00
2023-05-06T05:24:40.738Z,1405.00
2023-05-06T05:25:40.780Z,1398.00
2023-05-06T05:26:40.850Z,1404.00
2023-05-06T05:27:40.874Z,1396.00
2023-05-06T05:28:41.053Z,1401.00
2023-05-06T05:29:40.963Z,1388.00
2023-05-06T05:30:41.034Z,1397.00
2023-05-06T05:31:41.218Z,1399.00
2023-05-06T05:32:41.171Z,1393.00
2023-05-06T05:33:41.228Z,1394.00
2023-05-06T05:34:41.218Z,1395.00
2023-05-06T05:35:41.309Z,1372.00
2023-05-06T05:36:41.313Z,1395.00
2023-05-06T05:37:41.385Z,1384.00
2023-05-06T05:38:41.514Z,1383.00
2023-05-06T05:39:41.503Z,1385.00
2023-05-06T05:40:41.523Z,1391.00
2023-05-06T05:41:41.595Z,1378.00
2023-05-06T05:42:41.606Z,1389.00
2023-05-06T05:43:41.677Z,1387.00
2023-05-06T05:44:41.728Z,1375.00
2023-05-06T05:45:41.804Z,1374.00
2023-05-06T05:46:41.896Z,1364.00
2023-05-06T05:47:41.916Z,1388.00
2023-05-06T05:48:41.922Z,1374.00
2023-05-06T05:49:41.985Z,1384.00
2023-05-06T05:50:42.040Z,1383.00
2023-05-06T05:51:42.091Z,1382.00
2023-05-06T05:52:42.106Z,1362.00
2023-05-06T05:53:42.172Z,1372.00
2023-05-06T05:54:42.202Z,1378.00
2023-05-06T05:55:42.259Z,1374.00
2023-05-06T05:56:42.293Z,1377.00
2023-05-06T05:57:42.368Z,1364.00
2023-05-06T05:58:42.419Z,1360.00
2023-05-06T05:59:42.450Z,1369.00
2023-05-06T06:00:42.490Z,1363.00
2023-05-06T06:01:42.544Z,1374.00
2023-05-06T06:02:42.637Z,1355.00
2023-05-06T06:03:42.795Z,1368.00
2023-05-06T06:04:42.710Z,1366.00
2023-05-06T06:05:42.729Z,1371.00
2023-05-06T06:06:42.775Z,1363.00
2023-05-06T06:07:42.838Z,1365.00
2023-05-06T06:08:42.912Z,1352.00
2023-05-06T06:09:42.930Z,1366.00
2023-05-06T06:10:43.180Z,1359.00
2023-05-06T06:11:43.037Z,1363.00
2023-05-06T06:12:43.130Z,1349.00
2023-05-06T06:13:43.128Z,1348.00
2023-05-06T06:14:43.202Z,1356.00
2023-05-06T06:15:43.209Z,1366.00
2023-05-06T06:16:43.406Z,1351.00
2023-05-06T06:17:43.319Z,1351.00
2023-05-06T06:18:43.372Z,1355.00
2023-05-06T06:19:43.389Z,1351.00
2023-05-06T06:20:43.438Z,1344.00
2023-05-06T06:21:43.493Z,1350.00
2023-05-06T06:22:43.529Z,1337.00
2023-05-06T06:23:43.596Z,1351.00
2023-05-06T06:24:43.639Z,1341.00
2023-05-06T06:25:43.686Z,1353.00
2023-05-06T06:26:43.713Z,1353.00
2023-05-06T06:27:43.772Z,1339.00
2023-05-06T06:28:43.931Z,1333.00
2023-05-06T06:29:44.024Z,1337.00
2023-05-06T06:30:44.020Z,1329.00
2023-05-06T06:31:44.076Z,1339.00
2023-05-06T06:32:44.052Z,1339.00
2023-05-06T06:33:44.086Z,1338.00
2023-05-06T06:34:44.119Z,1339.00
2023-05-06T06:35:44.196Z,1325.00
2023-05-06T06:36:44.208Z,1327.00
2023-05-06T06:37:44.262Z,1347.00
2023-05-06T06:38:44.351Z,1339.00
2023-05-06T06:39:44.381Z,1325.00
2023-05-06T06:40:44.447Z,1338.00
2023-05-06T06:41:44.513Z,1333.00
2023-05-06T06:42:44.614Z,1341.00
2023-05-06T06:43:44.599Z,1321.00
2023-05-06T06:44:44.657Z,1329.00
2023-05-06T06:45:44.717Z,1308.00
2023-05-06T06:46:44.740Z,1321.00
2023-05-06T06:47:44.842Z,1329.00
2023-05-06T06:48:44.867Z,1320.00
2023-05-06T06:49:44.895Z,1308.00
2023-05-06T06:50:44.933Z,1298.00
2023-05-06T06:51:44.987Z,1331.00
2023-05-06T06:52:45.033Z,1333.00
2023-05-06T06:53:45.144Z,1329.00
2023-05-06T06:54:45.139Z,1326.00
2023-05-06T06:55:45.226Z,1311.00
2023-05-06T06:56:45.236Z,1324.00
2023-05-06T06:57:45.273Z,1324.00
2023-05-06T06:58:45.446Z,1305.00
2023-05-06T06:59:45.369Z,1302.00
2023-05-06T07:00:45.473Z,1324.00
2023-05-06T07:01:45.516Z,1315.00
2023-05-06T07:02:45.518Z,1309.00
2023-05-06T07:03:45.588Z,1328.00
2023-05-06T07:04:45.640Z,1297.00
2023-05-06T07:05:45.666Z,1315.00
2023-05-06T07:06:45.718Z,1317.00
2023-05-06T07:07:45.745Z,1313.00
2023-05-06T07:08:45.793Z,1308.00
2023-05-06T07:09:45.849Z,1325.00
2023-05-06T07:10:45.911Z,1318.00
2023-05-06T07:11:45.927Z,1316.00
2023-05-06T07:12:45.993Z,1307.00
2023-05-06T07:13:46.031Z,1317.00
2023-05-06T07:14:46.146Z,1299.00
2023-05-06T07:15:46.135Z,1313.00
2023-05-06T07:16:47.632Z,1310.00
2023-05-06T07:17:46.285Z,1308.00
2023-05-06T07:18:46.368Z,1312.00
2023-05-06T07:19:46.408Z,1309.00
2023-05-06T07:20:46.482Z,1304.00
2023-05-06T07:21:46.468Z,1324.00
2023-05-06T07:22:46.504Z,1306.00
2023-05-06T07:23:46.564Z,1307.00
2023-05-06T07:24:46.617Z,1323.00
2023-05-06T07:25:46.644Z,1300.00
2023-05-06T07:26:46.683Z,1301.00
2023-05-06T07:27:46.749Z,1309.00
2023-05-06T07:28:46.804Z,1310.00
2023-05-06T07:29:46.824Z,1300.00
2023-05-06T07:30:46.961Z,1300.00
2023-05-06T07:31:46.921Z,1303.00
2023-05-06T07:32:46.992Z,1307.00
2023-05-06T07:33:47.016Z,1311.00
2023-05-06T07:34:47.055Z,1303.00
2023-05-06T07:35:47.078Z,1304.00
2023-05-06T07:36:47.115Z,1308.00
2023-05-06T07:37:47.159Z,1306.00
2023-05-06T07:38:47.206Z,1311.00
2023-05-06T07:39:47.232Z,1315.00
2023-05-06T07:40:47.292Z,1306.00
2023-05-06T07:41:47.314Z,1293.00
2023-05-06T07:42:47.394Z,1316.00
2023-05-06T07:43:47.415Z,1294.00
2023-05-06T07:44:47.440Z,1301.00
2023-05-06T07:45:47.507Z,1299.00
2023-05-06T07:46:47.608Z,1311.00
2023-05-06T07:47:47.620Z,1304.00
2023-05-06T07:48:47.601Z,1299.00
2023-05-06T07:49:47.624Z,1299.00
2023-05-06T07:50:47.678Z,1287.00
2023-05-06T07:51:47.713Z,1310.00
2023-05-06T07:52:47.770Z,1297.00
2023-05-06T07:53:47.790Z,1293.00
2023-05-06T07:54:47.818Z,1295.00
2023-05-06T07:55:47.868Z,1302.00
2023-05-06T07:56:47.892Z,1298.00
2023-05-06T07:57:47.957Z,1304.00
2023-05-06T07:58:48.040Z,1287.00
2023-05-06T07:59:48.034Z,1298.00
2023-05-06T08:00:48.069Z,1280.00
2023-05-06T08:01:48.099Z,1304.00
2023-05-06T08:02:48.292Z,1293.00
2023-05-06T08:03:48.247Z,1287.00
2023-05-06T08:04:50.872Z,1291.00
2023-05-06T08:05:48.223Z,1299.00
2023-05-06T08:06:48.204Z,1284.00
2023-05-06T08:07:48.206Z,1287.00
2023-05-06T08:08:48.194Z,1289.00
2023-05-06T08:09:48.188Z,1295.00
2023-05-06T08:10:48.174Z,1285.00
2023-05-06T08:11:48.162Z,1295.00
2023-05-06T08:12:48.146Z,1282.00
2023-05-06T08:13:48.159Z,1291.00
2023-05-06T08:14:48.138Z,1282.00
2023-05-06T08:15:48.229Z,1292.00
2023-05-06T08:16:48.201Z,1282.00
2023-05-06T08:17:48.174Z,1295.00
2023-05-06T08:18:48.303Z,1277.00
2023-05-06T08:19:48.119Z,1285.00
2023-05-06T08:20:48.123Z,1287.00
2023-05-06T08:21:48.076Z,1292.00
2023-05-06T08:22:48.099Z,1284.00
2023-05-06T08:23:48.079Z,1284.00
2023-05-06T08:24:48.120Z,1277.00
2023-05-06T08:25:48.079Z,1278.00
2023-05-06T08:26:48.054Z,1278.00
2023-05-06T08:27:48.068Z,1255.00
2023-05-06T08:28:48.040Z,1282.00
2023-05-06T08:29:48.065Z,1276.00
2023-05-06T08:30:48.050Z,1266.00
2023-05-06T08:31:48.132Z,1268.00
2023-05-06T08:32:48.050Z,1258.00
2023-05-06T08:33:47.994Z,1255.00
2023-05-06T08:34:47.998Z,1278.00
2023-05-06T08:35:48.026Z,1248.00
2023-05-06T08:36:47.987Z,1254.00
2023-05-06T08:37:47.991Z,1257.00
2023-05-06T08:38:47.970Z,1254.00
2023-05-06T08:39:47.970Z,1256.00
2023-05-06T08:40:47.959Z,1250.00
2023-05-06T08:41:47.969Z,1254.00
2023-05-06T08:42:47.952Z,1254.00
2023-05-06T08:43:47.956Z,1241.00
2023-05-06T08:44:47.943Z,1256.00
2023-05-06T08:45:47.982Z,1261.00
2023-05-06T08:46:48.028Z,1262.00
2023-05-06T08:47:47.960Z,1258.00
2023-05-06T08:48:47.936Z,1255.00
2023-05-06T08:49:47.913Z,1263.00
2023-05-06T08:50:47.898Z,1265.00
2023-05-06T08:51:47.895Z,1253.00
2023-05-06T08:52:47.889Z,1253.00
2023-05-06T08:53:47.888Z,1263.00
2023-05-06T08:54:47.860Z,1249.00
2023-05-06T08:55:47.857Z,1257.00
2023-05-06T08:56:47.848Z,1242.00
2023-05-06T08:57:47.861Z,1251.00
2023-05-06T08:58:47.858Z,1255.00
2023-05-06T08:59:47.828Z,1249.00
2023-05-06T09:00:47.909Z,1247.00
2023-05-06T09:01:47.963Z,1245.00
2023-05-06T09:02:47.973Z,1244.00
2023-05-06T09:03:48.134Z,1239.00
2023-05-06T09:04:47.986Z,1249.00
2023-05-06T09:05:47.997Z,1231.00
2023-05-06T09:06:48.046Z,1236.00
2023-05-06T09:07:48.046Z,1233.00
2023-05-06T09:08:48.104Z,1235.00
2023-05-06T09:09:48.145Z,1247.00
2023-05-06T09:10:48.189Z,1235.00
2023-05-06T09:11:48.153Z,1237.00
2023-05-06T09:12:48.202Z,1249.00
2023-05-06T09:13:48.235Z,1255.00
2023-05-06T09:14:48.298Z,1229.00
2023-05-06T09:15:48.304Z,1242.00
2023-05-06T09:16:48.365Z,1239.00
2023-05-06T09:17:48.395Z,1235.00
2023-05-06T09:18:48.357Z,1246.00
2023-05-06T09:19:48.390Z,1246.00
2023-05-06T09:20:48.467Z,1237.00
2023-05-06T09:21:48.466Z,1226.00
2023-05-06T09:22:48.475Z,1243.00
2023-05-06T09:23:48.504Z,1234.00
2023-05-06T09:24:48.535Z,1236.00
2023-05-06T09:25:48.560Z,1248.00
2023-05-06T09:26:48.595Z,1240.00
2023-05-06T09:27:48.619Z,1246.00
2023-05-06T09:28:48.670Z,1236.00
2023-05-06T09:29:48.660Z,1224.00
2023-05-06T09:30:48.753Z,1233.00
2023-05-06T09:31:48.751Z,1226.00
2023-05-06T09:32:48.774Z,1231.00
2023-05-06T09:33:48.795Z,1234.00
2023-05-06T09:34:48.844Z,1215.00
2023-05-06T09:35:48.874Z,1225.00
2023-05-06T09:36:48.891Z,1229.00
2023-05-06T09:37:48.946Z,1213.00
2023-05-06T09:38:49.050Z,1230.00
2023-05-06T09:39:49.007Z,1239.00
2023-05-06T09:40:49.018Z,1223.00
2023-05-06T09:41:49.064Z,1226.00
2023-05-06T09:42:49.154Z,1228.00
2023-05-06T09:43:49.175Z,1238.00
2023-05-06T09:44:49.156Z,1237.00
2023-05-06T09:45:49.247Z,1223.00
2023-05-06T09:46:49.238Z,1203.00
2023-05-06T09:47:49.290Z,1221.00
2023-05-06T09:48:49.301Z,1207.00
2023-05-06T09:49:49.340Z,1217.00
2023-05-06T09:50:49.367Z,1206.00
2023-05-06T09:51:49.393Z,1214.00
2023-05-06T09:52:49.421Z,1215.00
2023-05-06T09:53:49.509Z,1205.00
2023-05-06T09:54:49.553Z,1214.00
2023-05-06T09:55:49.528Z,1216.00
2023-05-06T09:56:49.546Z,1213.00
2023-05-06T09:57:49.577Z,1219.00
2023-05-06T09:58:49.624Z,1210.00
2023-05-06T09:59:49.632Z,1211.00
2023-05-06T10:00:49.660Z,1210.00
2023-05-06T10:01:49.719Z,1218.00
2023-05-06T10:02:49.809Z,1209.00
2023-05-06T10:03:50.213Z,1220.00
2023-05-06T10:04:49.946Z,1217.00
2023-05-06T10:05:49.807Z,1204.00
2023-05-06T10:06:49.832Z,1203.00
2023-05-06T10:07:49.836Z,1198.00
2023-05-06T10:08:49.864Z,1212.00
2023-05-06T10:09:49.920Z,1209.00
2023-05-06T10:10:49.948Z,1228.00
2023-05-06T10:11:49.930Z,1203.00
2023-05-06T10:12:49.988Z,1206.00
2023-05-06T10:13:49.979Z,1211.00
2023-05-06T10:14:50.020Z,1213.00
2023-05-06T10:15:50.035Z,1204.00
2023-05-06T10:16:50.039Z,1209.00
2023-05-06T10:17:50.089Z,1212.00
2023-05-06T10:18:50.041Z,1207.00
2023-05-06T10:19:50.068Z,1182.00
2023-05-06T10:20:50.072Z,1205.00
2023-05-06T10:21:50.092Z,1202.00
2023-05-06T10:22:50.115Z,1199.00
2023-05-06T10:23:50.125Z,1202.00
2023-05-06T10:24:50.124Z,1208.00
2023-05-06T10:25:50.166Z,1191.00
2023-05-06T10:26:50.206Z,1190.00
2023-05-06T10:27:50.187Z,1198.00
2023-05-06T10:28:50.197Z,1196.00
2023-05-06T10:29:50.196Z,1202.00
2023-05-06T10:30:50.219Z,1202.00
2023-05-06T10:31:50.267Z,1194.00
2023-05-06T10:32:50.295Z,1190.00
2023-05-06T10:33:50.265Z,1194.00
2023-05-06T10:34:50.286Z,1192.00
2023-05-06T10:35:50.271Z,1192.00
2023-05-06T10:36:50.317Z,1198.00
2023-05-06T10:37:50.310Z,1197.00
2023-05-06T10:38:50.364Z,1182.00
2023-05-06T10:39:50.329Z,1195.00
2023-05-06T10:40:50.340Z,1183.00
2023-05-06T10:41:50.361Z,1195.00
2023-05-06T10:42:50.420Z,1182.00
2023-05-06T10:43:50.681Z,1180.00
2023-05-06T10:44:50.412Z,1194.00
2023-05-06T10:45:50.449Z,1195.00
2023-05-06T10:46:50.433Z,1184.00
2023-05-06T10:47:50.446Z,1185.00
2023-05-06T10:48:50.456Z,1193.00
2023-05-06T10:49:50.530Z,1185.00
2023-05-06T10:50:50.465Z,1201.00
2023-05-06T10:51:50.492Z,1187.00
2023-05-06T10:52:50.453Z,1194.00
2023-05-06T10:53:50.487Z,1186.00
2023-05-06T10:54:50.744Z,1194.00
2023-05-06T10:55:50.467Z,1188.00
2023-05-06T10:56:50.477Z,1187.00
2023-05-06T10:57:50.497Z,1183.00
2023-05-06T10:58:50.604Z,1190.00
2023-05-06T10:59:50.501Z,1183.00
2023-05-06T11:00:50.515Z,1176.00
2023-05-06T11:01:50.484Z,1189.00
2023-05-06T11:02:50.540Z,1187.00
2023-05-06T11:03:50.596Z,1184.00
2023-05-06T11:04:50.471Z,1170.00
2023-05-06T11:05:50.519Z,1170.00
2023-05-06T11:06:50.501Z,1181.00
2023-05-06T11:07:50.502Z,1178.00
2023-05-06T11:08:50.535Z,1190.00
2023-05-06T11:09:50.498Z,1188.00
2023-05-06T11:10:50.521Z,1178.00
2023-05-06T11:11:50.508Z,1187.00
2023-05-06T11:12:50.567Z,1180.00
2023-05-06T11:13:50.675Z,1187.00
2023-05-06T11:14:50.764Z,1178.00
2023-05-06T11:15:50.537Z,1168.00
2023-05-06T11:16:50.672Z,1160.00
2023-05-06T11:17:50.662Z,1176.00
2023-05-06T11:18:50.552Z,1167.00
2023-05-06T11:19:50.544Z,1183.00
2023-05-06T11:20:50.604Z,1176.00
2023-05-06T11:21:50.828Z,1168.00
2023-05-06T11:22:50.586Z,1187.00
2023-05-06T11:23:50.614Z,1159.00
2023-05-06T11:24:50.632Z,1181.00
2023-05-06T11:25:50.608Z,1157.00
2023-05-06T11:26:50.602Z,1185.00
2023-05-06T11:27:51.028Z,1174.00
2023-05-06T11:28:50.604Z,1177.00
2023-05-06T11:29:50.611Z,1170.00
2023-05-06T11:30:50.660Z,1168.00
2023-05-06T11:31:50.624Z,1180.00
2023-05-06T11:32:50.802Z,1176.00
2023-05-06T11:33:50.656Z,1165.00
2023-05-06T11:34:50.624Z,1174.00
2023-05-06T11:35:50.623Z,1175.00
2023-05-06T11:36:50.664Z,1171.00
2023-05-06T11:37:50.677Z,1172.00
2023-05-06T11:38:50.633Z,1169.00
2023-05-06T11:39:50.672Z,1176.00
2023-05-06T11:40:50.657Z,1173.00
2023-05-06T11:41:50.646Z,1164.00
2023-05-06T11:42:50.664Z,1167.00
2023-05-06T11:43:50.661Z,1137.00
2023-05-06T11:44:50.645Z,1146.00
2023-05-06T11:45:50.707Z,1175.00
2023-05-06T11:46:50.808Z,1166.00
2023-05-06T11:47:50.717Z,1163.00
2023-05-06T11:48:50.705Z,1165.00
2023-05-06T11:49:50.679Z,1152.00
2023-05-06T11:50:50.669Z,1172.00
2023-05-06T11:51:50.680Z,1149.00
2023-05-06T11:52:50.644Z,1141.00
2023-05-06T11:53:50.667Z,1155.00
2023-05-06T11:54:50.637Z,1150.00
2023-05-06T11:55:50.670Z,1143.00
2023-05-06T11:56:50.664Z,1148.00
2023-05-06T11:57:50.681Z,1159.00
2023-05-06T11:58:50.699Z,1147.00
2023-05-06T11:59:50.670Z,1154.00
2023-05-06T12:00:51.366Z,1143.00
2023-05-06T12:01:50.711Z,1147.00
2023-05-06T12:02:50.833Z,1145.00
2023-05-06T12:03:50.790Z,1154.00
2023-05-06T12:04:50.741Z,1142.00
2023-05-06T12:05:50.716Z,1161.00
2023-05-06T12:06:50.709Z,1155.00